sensor_id;sensor_type;location;lat;lon;timestamp;P1;durP1;ratioP1;P2;durP2;ratioP2
59930;SDS011;45790;51.538;6.736;2023-05-07T00:00:51;10.30;;;8.48;;
59930;SDS011;45790;51.538;6.736;2023-05-07T00:03:16;12.85;;;9.35;;
59930;SDS011;45790;51.538;6.736;2023-05-07T00:05:41;9.35;;;8.32;;
59930;SDS011;45790;51.538;6.736;2023-05-07T00:08:07;12.45;;;9.43;;
59930;SDS011;45790;51.538;6.736;2023-05-07T00:10:32;10.57;;;9.48;;
59930;SDS011;45790;51.538;6.736;2023-05-07T00:12:57;10.55;;;8.95;;
59930;SDS011;45790;51.538;6.736;2023-05-07T00:15:23;13.70;;;9.65;;
59930;SDS011;45790;51.538;6.736;2023-05-07T00:17:48;10.73;;;9.13;;
59930;SDS011;45790;51.538;6.736;2023-05-07T00:20:13;11.10;;;9.50;;
59930;SDS011;45790;51.538;6.736;2023-05-07T00:22:38;13.00;;;10.23;;
59930;SDS011;45790;51.538;6.736;2023-05-07T00:25:04;11.00;;;9.90;;
59930;SDS011;45790;51.538;6.736;2023-05-07T00:27:30;13.82;;;9.80;;
59930;SDS011;45790;51.538;6.736;2023-05-07T00:29:55;11.75;;;9.90;;
59930;SDS011;45790;51.538;6.736;2023-05-07T00:32:20;15.60;;;10.63;;
59930;SDS011;45790;51.538;6.736;2023-05-07T00:34:45;11.05;;;9.90;;
59930;SDS011;45790;51.538;6.736;2023-05-07T00:37:10;11.55;;;10.32;;
59930;SDS011;45790;51.538;6.736;2023-05-07T00:39:37;14.05;;;10.70;;
59930;SDS011;45790;51.538;6.736;2023-05-07T00:42:02;13.00;;;10.93;;
59930;SDS011;45790;51.538;6.736;2023-05-07T00:44:28;14.65;;;11.88;;
59930;SDS011;45790;51.538;6.736;2023-05-07T00:46:53;14.13;;;10.73;;
59930;SDS011;45790;51.538;6.736;2023-05-07T00:49:19;12.38;;;11.07;;
59930;SDS011;45790;51.538;6.736;2023-05-07T00:51:44;13.50;;;11.65;;
59930;SDS011;45790;51.538;6.736;2023-05-07T00:54:10;12.20;;;10.48;;
59930;SDS011;45790;51.538;6.736;2023-05-07T00:56:35;12.70;;;11.25;;
59930;SDS011;45790;51.538;6.736;2023-05-07T00:59:01;15.88;;;11.10;;
59930;SDS011;45790;51.538;6.736;2023-05-07T01:01:27;13.13;;;11.45;;
59930;SDS011;45790;51.538;6.736;2023-05-07T01:03:52;12.13;;;10.93;;
59930;SDS011;45790;51.538;6.736;2023-05-07T01:06:17;14.30;;;11.15;;
59930;SDS011;45790;51.538;6.736;2023-05-07T01:08:43;13.30;;;11.35;;
59930;SDS011;45790;51.538;6.736;2023-05-07T01:11:09;12.65;;;11.27;;
59930;SDS011;45790;51.538;6.736;2023-05-07T01:13:35;14.73;;;11.70;;
59930;SDS011;45790;51.538;6.736;2023-05-07T01:16:01;13.75;;;11.82;;
59930;SDS011;45790;51.538;6.736;2023-05-07T01:18:26;13.20;;;11.00;;
59930;SDS011;45790;51.538;6.736;2023-05-07T01:20:52;13.63;;;11.15;;
59930;SDS011;45790;51.538;6.736;2023-05-07T01:23:18;12.82;;;11.45;;
59930;SDS011;45790;51.538;6.736;2023-05-07T01:25:43;15.38;;;11.60;;
59930;SDS011;45790;51.538;6.736;2023-05-07T01:28:08;13.25;;;11.43;;
59930;SDS011;45790;51.538;6.736;2023-05-07T01:30:33;12.60;;;11.30;;
59930;SDS011;45790;51.538;6.736;2023-05-07T01:33:01;13.40;;;11.55;;
59930;SDS011;45790;51.538;6.736;2023-05-07T01:35:29;15.32;;;11.10;;
59930;SDS011;45790;51.538;6.736;2023-05-07T01:37:55;13.07;;;11.00;;
59930;SDS011;45790;51.538;6.736;2023-05-07T01:40:21;14.40;;;12.65;;
59930;SDS011;45790;51.538;6.736;2023-05-07T01:42:46;13.38;;;11.80;;
59930;SDS011;45790;51.538;6.736;2023-05-07T01:45:13;13.80;;;11.95;;
59930;SDS011;45790;51.538;6.736;2023-05-07T01:47:38;16.67;;;12.00;;
59930;SDS011;45790;51.538;6.736;2023-05-07T01:50:07;13.95;;;12.45;;
59930;SDS011;45790;51.538;6.736;2023-05-07T01:52:36;13.80;;;12.10;;
59930;SDS011;45790;51.538;6.736;2023-05-07T01:55:02;14.63;;;12.82;;
59930;SDS011;45790;51.538;6.736;2023-05-07T01:57:27;15.75;;;13.07;;
59930;SDS011;45790;51.538;6.736;2023-05-07T01:59:52;15.77;;;12.52;;
59930;SDS011;45790;51.538;6.736;2023-05-07T02:02:18;16.13;;;13.03;;
59930;SDS011;45790;51.538;6.736;2023-05-07T02:04:43;14.63;;;12.45;;
59930;SDS011;45790;51.538;6.736;2023-05-07T02:07:08;14.57;;;12.77;;
59930;SDS011;45790;51.538;6.736;2023-05-07T02:09:33;15.10;;;12.63;;
59930;SDS011;45790;51.538;6.736;2023-05-07T02:11:58;14.48;;;13.02;;
59930;SDS011;45790;51.538;6.736;2023-05-07T02:14:24;15.90;;;12.37;;
59930;SDS011;45790;51.538;6.736;2023-05-07T02:16:50;14.32;;;12.80;;
59930;SDS011;45790;51.538;6.736;2023-05-07T02:19:16;16.90;;;13.00;;
59930;SDS011;45790;51.538;6.736;2023-05-07T02:21:41;15.65;;;12.55;;
59930;SDS011;45790;51.538;6.736;2023-05-07T02:24:06;15.48;;;13.65;;
59930;SDS011;45790;51.538;6.736;2023-05-07T02:26:31;14.93;;;13.05;;
59930;SDS011;45790;51.538;6.736;2023-05-07T02:28:57;15.85;;;13.50;;
59930;SDS011;45790;51.538;6.736;2023-05-07T02:31:22;15.60;;;12.82;;
59930;SDS011;45790;51.538;6.736;2023-05-07T02:33:47;16.13;;;13.60;;
59930;SDS011;45790;51.538;6.736;2023-05-07T02:41:15;17.23;;;13.80;;
59930;SDS011;45790;51.538;6.736;2023-05-07T02:43:40;17.10;;;13.70;;
59930;SDS011;45790;51.538;6.736;2023-05-07T02:46:06;16.73;;;14.30;;
59930;SDS011;45790;51.538;6.736;2023-05-07T02:48:32;20.77;;;14.80;;
59930;SDS011;45790;51.538;6.736;2023-05-07T02:50:58;18.48;;;14.63;;
59930;SDS011;45790;51.538;6.736;2023-05-07T02:53:23;16.20;;;14.25;;
59930;SDS011;45790;51.538;6.736;2023-05-07T02:55:51;18.63;;;15.35;;
59930;SDS011;45790;51.538;6.736;2023-05-07T02:58:16;17.83;;;15.90;;
59930;SDS011;45790;51.538;6.736;2023-05-07T03:00:41;18.52;;;15.98;;
59930;SDS011;45790;51.538;6.736;2023-05-07T03:03:06;17.80;;;15.90;;
59930;SDS011;45790;51.538;6.736;2023-05-07T03:05:32;17.50;;;15.70;;
59930;SDS011;45790;51.538;6.736;2023-05-07T03:07:57;18.83;;;15.88;;
59930;SDS011;45790;51.538;6.736;2023-05-07T03:10:22;18.92;;;16.42;;
59930;SDS011;45790;51.538;6.736;2023-05-07T03:12:50;18.33;;;16.45;;
59930;SDS011;45790;51.538;6.736;2023-05-07T03:15:15;18.52;;;16.25;;
59930;SDS011;45790;51.538;6.736;2023-05-07T03:17:40;19.30;;;15.15;;
59930;SDS011;45790;51.538;6.736;2023-05-07T03:20:06;19.02;;;15.68;;
59930;SDS011;45790;51.538;6.736;2023-05-07T03:22:32;19.58;;;15.90;;
59930;SDS011;45790;51.538;6.736;2023-05-07T03:24:57;20.00;;;17.00;;
59930;SDS011;45790;51.538;6.736;2023-05-07T03:27:22;21.02;;;16.83;;
59930;SDS011;45790;51.538;6.736;2023-05-07T03:29:47;20.20;;;16.67;;
59930;SDS011;45790;51.538;6.736;2023-05-07T03:32:13;18.88;;;16.88;;
59930;SDS011;45790;51.538;6.736;2023-05-07T03:34:38;21.15;;;17.15;;
59930;SDS011;45790;51.538;6.736;2023-05-07T03:37:03;18.88;;;16.92;;
59930;SDS011;45790;51.538;6.736;2023-05-07T03:39:29;19.27;;;17.05;;
59930;SDS011;45790;51.538;6.736;2023-05-07T03:41:54;20.83;;;17.13;;
59930;SDS011;45790;51.538;6.736;2023-05-07T03:44:19;19.13;;;17.13;;
59930;SDS011;45790;51.538;6.736;2023-05-07T03:46:45;19.90;;;17.83;;
59930;SDS011;45790;51.538;6.736;2023-05-07T03:49:10;18.88;;;16.88;;
59930;SDS011;45790;51.538;6.736;2023-05-07T03:51:35;21.23;;;18.20;;
59930;SDS011;45790;51.538;6.736;2023-05-07T03:54:01;20.88;;;18.13;;
59930;SDS011;45790;51.538;6.736;2023-05-07T03:56:26;24.35;;;18.02;;
59930;SDS011;45790;51.538;6.736;2023-05-07T03:58:52;20.27;;;17.67;;
59930;SDS011;45790;51.538;6.736;2023-05-07T04:01:17;22.75;;;17.63;;
59930;SDS011;45790;51.538;6.736;2023-05-07T04:03:43;19.42;;;17.42;;
59930;SDS011;45790;51.538;6.736;2023-05-07T04:06:08;18.90;;;16.90;;
59930;SDS011;45790;51.538;6.736;2023-05-07T04:08:33;20.33;;;18.23;;
59930;SDS011;45790;51.538;6.736;2023-05-07T04:10:58;20.25;;;17.95;;
59930;SDS011;45790;51.538;6.736;2023-05-07T04:13:24;22.65;;;17.50;;
59930;SDS011;45790;51.538;6.736;2023-05-07T04:15:50;19.73;;;17.05;;
59930;SDS011;45790;51.538;6.736;2023-05-07T04:18:15;20.75;;;17.80;;
59930;SDS011;45790;51.538;6.736;2023-05-07T04:20:40;19.90;;;17.80;;
59930;SDS011;45790;51.538;6.736;2023-05-07T04:23:05;19.63;;;17.17;;
59930;SDS011;45790;51.538;6.736;2023-05-07T04:25:31;21.75;;;17.70;;
59930;SDS011;45790;51.538;6.736;2023-05-07T04:27:57;22.08;;;19.10;;
59930;SDS011;45790;51.538;6.736;2023-05-07T04:30:22;20.10;;;17.95;;
59930;SDS011;45790;51.538;6.736;2023-05-07T04:32:47;22.60;;;17.98;;
59930;SDS011;45790;51.538;6.736;2023-05-07T04:35:13;22.40;;;17.58;;
59930;SDS011;45790;51.538;6.736;2023-05-07T04:37:38;21.13;;;18.27;;
59930;SDS011;45790;51.538;6.736;2023-05-07T04:40:03;22.13;;;18.42;;
59930;SDS011;45790;51.538;6.736;2023-05-07T04:42:29;20.63;;;17.88;;
59930;SDS011;45790;51.538;6.736;2023-05-07T04:44:54;18.98;;;16.95;;
59930;SDS011;45790;51.538;6.736;2023-05-07T04:47:20;21.13;;;17.85;;
59930;SDS011;45790;51.538;6.736;2023-05-07T04:49:45;20.10;;;16.77;;
59930;SDS011;45790;51.538;6.736;2023-05-07T04:52:10;19.97;;;16.13;;
59930;SDS011;45790;51.538;6.736;2023-05-07T04:54:35;24.20;;;17.75;;
59930;SDS011;45790;51.538;6.736;2023-05-07T04:57:02;21.20;;;17.80;;
59930;SDS011;45790;51.538;6.736;2023-05-07T04:59:28;22.55;;;18.05;;
59930;SDS011;45790;51.538;6.736;2023-05-07T05:01:53;22.25;;;17.73;;
59930;SDS011;45790;51.538;6.736;2023-05-07T05:04:18;19.63;;;17.50;;
59930;SDS011;45790;51.538;6.736;2023-05-07T05:06:43;27.35;;;17.98;;
59930;SDS011;45790;51.538;6.736;2023-05-07T05:09:09;21.23;;;17.87;;
59930;SDS011;45790;51.538;6.736;2023-05-07T05:11:34;22.20;;;18.30;;
59930;SDS011;45790;51.538;6.736;2023-05-07T05:13:59;21.40;;;16.83;;
59930;SDS011;45790;51.538;6.736;2023-05-07T05:16:25;20.75;;;17.75;;
59930;SDS011;45790;51.538;6.736;2023-05-07T05:18:50;20.90;;;17.63;;
59930;SDS011;45790;51.538;6.736;2023-05-07T05:21:17;20.55;;;17.00;;
59930;SDS011;45790;51.538;6.736;2023-05-07T05:23:42;19.13;;;17.13;;
59930;SDS011;45790;51.538;6.736;2023-05-07T05:26:07;22.83;;;16.90;;
59930;SDS011;45790;51.538;6.736;2023-05-07T05:28:32;17.88;;;15.77;;
59930;SDS011;45790;51.538;6.736;2023-05-07T05:30:58;19.67;;;16.83;;
59930;SDS011;45790;51.538;6.736;2023-05-07T05:33:23;20.42;;;16.17;;
59930;SDS011;45790;51.538;6.736;2023-05-07T05:35:49;20.30;;;16.50;;
59930;SDS011;45790;51.538;6.736;2023-05-07T05:38:14;19.25;;;16.38;;
59930;SDS011;45790;51.538;6.736;2023-05-07T05:40:39;20.05;;;16.17;;
59930;SDS011;45790;51.538;6.736;2023-05-07T05:43:05;20.27;;;16.88;;
59930;SDS011;45790;51.538;6.736;2023-05-07T05:45:30;20.55;;;16.30;;
59930;SDS011;45790;51.538;6.736;2023-05-07T05:47:56;18.07;;;15.77;;
59930;SDS011;45790;51.538;6.736;2023-05-07T05:50:21;19.55;;;15.90;;
59930;SDS011;45790;51.538;6.736;2023-05-07T05:52:46;21.55;;;15.68;;
59930;SDS011;45790;51.538;6.736;2023-05-07T05:57:48;19.27;;;14.98;;
59930;SDS011;45790;51.538;6.736;2023-05-07T06:00:13;17.67;;;13.00;;
59930;SDS011;45790;51.538;6.736;2023-05-07T06:02:38;19.63;;;13.63;;
59930;SDS011;45790;51.538;6.736;2023-05-07T06:05:04;16.50;;;13.27;;
59930;SDS011;45790;51.538;6.736;2023-05-07T06:07:29;17.58;;;12.82;;
59930;SDS011;45790;51.538;6.736;2023-05-07T06:09:55;15.90;;;12.48;;
59930;SDS011;45790;51.538;6.736;2023-05-07T06:12:20;15.00;;;11.90;;
59930;SDS011;45790;51.538;6.736;2023-05-07T06:14:46;14.80;;;11.27;;
59930;SDS011;45790;51.538;6.736;2023-05-07T06:17:11;13.17;;;11.23;;
59930;SDS011;45790;51.538;6.736;2023-05-07T06:19:36;14.27;;;10.13;;
59930;SDS011;45790;51.538;6.736;2023-05-07T06:22:01;13.53;;;10.63;;
59930;SDS011;45790;51.538;6.736;2023-05-07T06:24:27;12.45;;;9.40;;
59930;SDS011;45790;51.538;6.736;2023-05-07T06:26:52;12.18;;;9.65;;
59930;SDS011;45790;51.538;6.736;2023-05-07T06:29:18;12.73;;;9.40;;
59930;SDS011;45790;51.538;6.736;2023-05-07T06:31:43;14.15;;;9.88;;
59930;SDS011;45790;51.538;6.736;2023-05-07T06:34:08;13.23;;;9.15;;
59930;SDS011;45790;51.538;6.736;2023-05-07T06:39:08;13.07;;;9.32;;
59930;SDS011;45790;51.538;6.736;2023-05-07T06:41:37;12.63;;;9.32;;
59930;SDS011;45790;51.538;6.736;2023-05-07T06:44:02;10.57;;;8.45;;
59930;SDS011;45790;51.538;6.736;2023-05-07T06:46:28;15.80;;;9.73;;
59930;SDS011;45790;51.538;6.736;2023-05-07T06:48:53;13.18;;;8.48;;
59930;SDS011;45790;51.538;6.736;2023-05-07T06:51:18;10.05;;;7.45;;
59930;SDS011;45790;51.538;6.736;2023-05-07T06:53:44;12.82;;;8.38;;
59930;SDS011;45790;51.538;6.736;2023-05-07T06:56:09;12.65;;;8.00;;
59930;SDS011;45790;51.538;6.736;2023-05-07T06:58:34;10.98;;;7.90;;
59930;SDS011;45790;51.538;6.736;2023-05-07T07:00:59;9.30;;;7.03;;
59930;SDS011;45790;51.538;6.736;2023-05-07T07:03:25;9.68;;;6.90;;
59930;SDS011;45790;51.538;6.736;2023-05-07T07:05:53;10.43;;;7.50;;
59930;SDS011;45790;51.538;6.736;2023-05-07T07:08:18;8.88;;;7.03;;
59930;SDS011;45790;51.538;6.736;2023-05-07T07:10:46;9.25;;;7.10;;
59930;SDS011;45790;51.538;6.736;2023-05-07T07:13:11;10.63;;;7.17;;
59930;SDS011;45790;51.538;6.736;2023-05-07T07:15:36;10.35;;;6.47;;
59930;SDS011;45790;51.538;6.736;2023-05-07T07:18:01;11.60;;;6.53;;
59930;SDS011;45790;51.538;6.736;2023-05-07T07:20:27;9.23;;;6.40;;
59930;SDS011;45790;51.538;6.736;2023-05-07T07:22:52;9.90;;;6.07;;
59930;SDS011;45790;51.538;6.736;2023-05-07T07:25:17;8.55;;;5.93;;
59930;SDS011;45790;51.538;6.736;2023-05-07T07:27:42;8.75;;;5.50;;
59930;SDS011;45790;51.538;6.736;2023-05-07T07:30:08;10.77;;;5.43;;
59930;SDS011;45790;51.538;6.736;2023-05-07T07:32:34;7.75;;;5.85;;
59930;SDS011;45790;51.538;6.736;2023-05-07T07:34:59;7.53;;;5.35;;
59930;SDS011;45790;51.538;6.736;2023-05-07T07:40:09;7.78;;;4.50;;
59930;SDS011;45790;51.538;6.736;2023-05-07T07:42:34;7.95;;;4.78;;
59930;SDS011;45790;51.538;6.736;2023-05-07T07:45:02;6.85;;;4.18;;
59930;SDS011;45790;51.538;6.736;2023-05-07T08:03:35;6.63;;;3.35;;
59930;SDS011;45790;51.538;6.736;2023-05-07T08:06:01;6.45;;;3.45;;
59930;SDS011;45790;51.538;6.736;2023-05-07T08:08:32;4.57;;;3.17;;
59930;SDS011;45790;51.538;6.736;2023-05-07T08:11:00;4.75;;;2.75;;
59930;SDS011;45790;51.538;6.736;2023-05-07T08:13:26;5.40;;;3.38;;
59930;SDS011;45790;51.538;6.736;2023-05-07T08:15:51;5.03;;;3.10;;
59930;SDS011;45790;51.538;6.736;2023-05-07T08:18:17;5.05;;;3.13;;
59930;SDS011;45790;51.538;6.736;2023-05-07T08:20:42;5.18;;;2.90;;
59930;SDS011;45790;51.538;6.736;2023-05-07T08:23:08;7.97;;;3.35;;
59930;SDS011;45790;51.538;6.736;2023-05-07T08:25:33;6.20;;;3.10;;
59930;SDS011;45790;51.538;6.736;2023-05-07T08:27:59;6.13;;;2.75;;
59930;SDS011;45790;51.538;6.736;2023-05-07T08:30:25;6.35;;;2.70;;
59930;SDS011;45790;51.538;6.736;2023-05-07T08:32:50;3.97;;;2.38;;
59930;SDS011;45790;51.538;6.736;2023-05-07T08:35:15;4.60;;;2.70;;
59930;SDS011;45790;51.538;6.736;2023-05-07T08:37:40;7.05;;;2.55;;
59930;SDS011;45790;51.538;6.736;2023-05-07T08:42:41;5.05;;;2.42;;
59930;SDS011;45790;51.538;6.736;2023-05-07T08:45:22;6.35;;;2.92;;
59930;SDS011;45790;51.538;6.736;2023-05-07T08:47:58;6.32;;;3.45;;
59930;SDS011;45790;51.538;6.736;2023-05-07T08:50:37;6.32;;;2.60;;
59930;SDS011;45790;51.538;6.736;2023-05-07T08:53:04;5.28;;;3.03;;
59930;SDS011;45790;51.538;6.736;2023-05-07T08:55:32;5.72;;;2.75;;
59930;SDS011;45790;51.538;6.736;2023-05-07T08:57:59;5.75;;;2.78;;
59930;SDS011;45790;51.538;6.736;2023-05-07T09:00:28;4.22;;;2.65;;
59930;SDS011;45790;51.538;6.736;2023-05-07T09:02:54;6.97;;;2.78;;
59930;SDS011;45790;51.538;6.736;2023-05-07T09:05:23;5.63;;;2.60;;
59930;SDS011;45790;51.538;6.736;2023-05-07T09:07:49;4.75;;;2.70;;
59930;SDS011;45790;51.538;6.736;2023-05-07T09:10:15;4.57;;;2.65;;
59930;SDS011;45790;51.538;6.736;2023-05-07T09:12:40;5.57;;;2.45;;
59930;SDS011;45790;51.538;6.736;2023-05-07T09:15:06;4.68;;;2.70;;
59930;SDS011;45790;51.538;6.736;2023-05-07T09:17:31;6.65;;;2.70;;
59930;SDS011;45790;51.538;6.736;2023-05-07T09:20:01;8.00;;;3.05;;
59930;SDS011;45790;51.538;6.736;2023-05-07T09:22:27;6.40;;;2.70;;
59930;SDS011;45790;51.538;6.736;2023-05-07T09:24:52;6.43;;;2.80;;
59930;SDS011;45790;51.538;6.736;2023-05-07T09:27:18;6.00;;;2.50;;
59930;SDS011;45790;51.538;6.736;2023-05-07T09:29:43;5.25;;;2.72;;
59930;SDS011;45790;51.538;6.736;2023-05-07T09:32:09;5.65;;;2.47;;
59930;SDS011;45790;51.538;6.736;2023-05-07T09:34:34;4.75;;;2.80;;
59930;SDS011;45790;51.538;6.736;2023-05-07T09:37:03;5.15;;;2.55;;
59930;SDS011;45790;51.538;6.736;2023-05-07T09:42:06;4.32;;;2.20;;
59930;SDS011;45790;51.538;6.736;2023-05-07T09:44:32;5.55;;;2.47;;
59930;SDS011;45790;51.538;6.736;2023-05-07T09:46:57;4.32;;;2.22;;
59930;SDS011;45790;51.538;6.736;2023-05-07T09:49:24;4.20;;;2.10;;
59930;SDS011;45790;51.538;6.736;2023-05-07T09:51:52;4.68;;;2.40;;
59930;SDS011;45790;51.538;6.736;2023-05-07T09:54:17;9.90;;;2.50;;
59930;SDS011;45790;51.538;6.736;2023-05-07T09:56:43;3.47;;;1.90;;
59930;SDS011;45790;51.538;6.736;2023-05-07T09:59:09;5.38;;;2.25;;
59930;SDS011;45790;51.538;6.736;2023-05-07T10:01:35;2.67;;;1.73;;
59930;SDS011;45790;51.538;6.736;2023-05-07T10:04:01;4.38;;;2.00;;
59930;SDS011;45790;51.538;6.736;2023-05-07T10:06:27;6.90;;;2.50;;
59930;SDS011;45790;51.538;6.736;2023-05-07T10:08:52;6.10;;;2.90;;
59930;SDS011;45790;51.538;6.736;2023-05-07T10:11:18;5.60;;;2.70;;
59930;SDS011;45790;51.538;6.736;2023-05-07T10:13:43;5.55;;;2.53;;
59930;SDS011;45790;51.538;6.736;2023-05-07T10:16:08;5.10;;;2.40;;
59930;SDS011;45790;51.538;6.736;2023-05-07T10:18:34;5.63;;;2.53;;
59930;SDS011;45790;51.538;6.736;2023-05-07T10:21:21;3.67;;;2.13;;
59930;SDS011;45790;51.538;6.736;2023-05-07T10:23:45;3.90;;;2.22;;
59930;SDS011;45790;51.538;6.736;2023-05-07T10:26:11;5.50;;;2.30;;
59930;SDS011;45790;51.538;6.736;2023-05-07T10:28:38;4.95;;;2.40;;
59930;SDS011;45790;51.538;6.736;2023-05-07T10:31:10;5.80;;;2.63;;
59930;SDS011;45790;51.538;6.736;2023-05-07T10:33:37;3.05;;;1.77;;
59930;SDS011;45790;51.538;6.736;2023-05-07T10:36:04;3.97;;;2.35;;
59930;SDS011;45790;51.538;6.736;2023-05-07T10:38:30;4.95;;;2.10;;
59930;SDS011;45790;51.538;6.736;2023-05-07T10:40:55;4.22;;;1.92;;
59930;SDS011;45790;51.538;6.736;2023-05-07T10:43:21;5.07;;;2.30;;
59930;SDS011;45790;51.538;6.736;2023-05-07T10:48:30;2.83;;;1.75;;
59930;SDS011;45790;51.538;6.736;2023-05-07T10:53:40;5.30;;;2.08;;
59930;SDS011;45790;51.538;6.736;2023-05-07T10:56:23;7.00;;;1.93;;
59930;SDS011;45790;51.538;6.736;2023-05-07T10:58:48;5.55;;;1.90;;
59930;SDS011;45790;51.538;6.736;2023-05-07T11:01:14;5.67;;;1.90;;
59930;SDS011;45790;51.538;6.736;2023-05-07T11:06:40;5.03;;;1.88;;
59930;SDS011;45790;51.538;6.736;2023-05-07T11:09:05;4.88;;;1.80;;
59930;SDS011;45790;51.538;6.736;2023-05-07T11:14:08;3.58;;;1.83;;
59930;SDS011;45790;51.538;6.736;2023-05-07T11:16:33;2.97;;;1.70;;
59930;SDS011;45790;51.538;6.736;2023-05-07T11:19:01;3.55;;;1.88;;
59930;SDS011;45790;51.538;6.736;2023-05-07T11:23:58;6.20;;;1.40;;
59930;SDS011;45790;51.538;6.736;2023-05-07T11:26:24;5.38;;;1.77;;
59930;SDS011;45790;51.538;6.736;2023-05-07T11:28:50;3.22;;;1.70;;
59930;SDS011;45790;51.538;6.736;2023-05-07T11:31:17;4.55;;;1.60;;
59930;SDS011;45790;51.538;6.736;2023-05-07T11:33:45;2.97;;;1.30;;
59930;SDS011;45790;51.538;6.736;2023-05-07T11:36:10;6.93;;;1.40;;
59930;SDS011;45790;51.538;6.736;2023-05-07T11:38:36;2.90;;;1.50;;
59930;SDS011;45790;51.538;6.736;2023-05-07T11:41:02;3.55;;;1.50;;
59930;SDS011;45790;51.538;6.736;2023-05-07T11:43:29;3.47;;;1.70;;
59930;SDS011;45790;51.538;6.736;2023-05-07T11:45:55;3.50;;;1.55;;
59930;SDS011;45790;51.538;6.736;2023-05-07T11:48:30;3.55;;;1.30;;
59930;SDS011;45790;51.538;6.736;2023-05-07T11:51:00;3.45;;;1.27;;
59930;SDS011;45790;51.538;6.736;2023-05-07T11:53:26;3.72;;;1.30;;
59930;SDS011;45790;51.538;6.736;2023-05-07T11:55:55;3.85;;;1.30;;
59930;SDS011;45790;51.538;6.736;2023-05-07T11:58:21;3.28;;;1.30;;
59930;SDS011;45790;51.538;6.736;2023-05-07T12:00:50;5.70;;;1.48;;
59930;SDS011;45790;51.538;6.736;2023-05-07T12:03:15;4.15;;;1.50;;
59930;SDS011;45790;51.538;6.736;2023-05-07T12:05:40;2.72;;;1.65;;
59930;SDS011;45790;51.538;6.736;2023-05-07T12:08:06;3.53;;;1.90;;
59930;SDS011;45790;51.538;6.736;2023-05-07T12:10:32;4.38;;;1.85;;
59930;SDS011;45790;51.538;6.736;2023-05-07T12:12:57;3.67;;;1.50;;
59930;SDS011;45790;51.538;6.736;2023-05-07T12:15:22;3.55;;;1.52;;
59930;SDS011;45790;51.538;6.736;2023-05-07T12:17:48;4.22;;;1.50;;
59930;SDS011;45790;51.538;6.736;2023-05-07T12:20:13;3.15;;;1.70;;
59930;SDS011;45790;51.538;6.736;2023-05-07T12:22:39;4.18;;;1.42;;
59930;SDS011;45790;51.538;6.736;2023-05-07T12:25:05;2.55;;;1.77;;
59930;SDS011;45790;51.538;6.736;2023-05-07T12:27:31;4.22;;;1.80;;
59930;SDS011;45790;51.538;6.736;2023-05-07T12:29:57;2.85;;;1.70;;
59930;SDS011;45790;51.538;6.736;2023-05-07T12:32:22;4.03;;;1.65;;
59930;SDS011;45790;51.538;6.736;2023-05-07T12:34:51;2.50;;;1.60;;
59930;SDS011;45790;51.538;6.736;2023-05-07T12:37:16;2.95;;;1.50;;
59930;SDS011;45790;51.538;6.736;2023-05-07T12:39:48;6.53;;;1.77;;
59930;SDS011;45790;51.538;6.736;2023-05-07T12:42:19;4.90;;;1.83;;
59930;SDS011;45790;51.538;6.736;2023-05-07T12:44:45;3.15;;;1.63;;
59930;SDS011;45790;51.538;6.736;2023-05-07T12:49:43;7.47;;;2.10;;
59930;SDS011;45790;51.538;6.736;2023-05-07T12:52:20;7.47;;;2.80;;
59930;SDS011;45790;51.538;6.736;2023-05-07T12:57:56;5.50;;;2.40;;
59930;SDS011;45790;51.538;6.736;2023-05-07T13:00:37;7.93;;;2.30;;
59930;SDS011;45790;51.538;6.736;2023-05-07T13:03:05;9.60;;;2.63;;
59930;SDS011;45790;51.538;6.736;2023-05-07T13:05:39;5.82;;;2.80;;
59930;SDS011;45790;51.538;6.736;2023-05-07T13:08:08;5.22;;;2.63;;
59930;SDS011;45790;51.538;6.736;2023-05-07T13:10:43;6.85;;;2.85;;
59930;SDS011;45790;51.538;6.736;2023-05-07T13:13:35;6.40;;;2.85;;
59930;SDS011;45790;51.538;6.736;2023-05-07T13:16:02;6.03;;;2.90;;
59930;SDS011;45790;51.538;6.736;2023-05-07T13:18:31;6.75;;;2.72;;
59930;SDS011;45790;51.538;6.736;2023-05-07T13:21:03;6.00;;;2.80;;
59930;SDS011;45790;51.538;6.736;2023-05-07T13:23:53;11.98;;;3.00;;
59930;SDS011;45790;51.538;6.736;2023-05-07T13:26:35;7.35;;;3.42;;
59930;SDS011;45790;51.538;6.736;2023-05-07T13:29:23;6.82;;;2.88;;
59930;SDS011;45790;51.538;6.736;2023-05-07T13:32:34;5.70;;;3.13;;
59930;SDS011;45790;51.538;6.736;2023-05-07T13:38:19;6.95;;;2.95;;
59930;SDS011;45790;51.538;6.736;2023-05-07T13:40:49;5.15;;;2.72;;
59930;SDS011;45790;51.538;6.736;2023-05-07T13:43:56;5.90;;;2.75;;
59930;SDS011;45790;51.538;6.736;2023-05-07T13:46:32;6.35;;;3.28;;
59930;SDS011;45790;51.538;6.736;2023-05-07T13:49:07;8.07;;;3.15;;
59930;SDS011;45790;51.538;6.736;2023-05-07T13:51:45;6.30;;;3.40;;
59930;SDS011;45790;51.538;6.736;2023-05-07T13:54:10;5.88;;;3.42;;
59930;SDS011;45790;51.538;6.736;2023-05-07T13:56:36;7.60;;;3.90;;
59930;SDS011;45790;51.538;6.736;2023-05-07T13:59:02;7.55;;;4.03;;
59930;SDS011;45790;51.538;6.736;2023-05-07T14:01:27;4.85;;;3.47;;
59930;SDS011;45790;51.538;6.736;2023-05-07T14:03:52;6.93;;;4.05;;
59930;SDS011;45790;51.538;6.736;2023-05-07T14:06:17;7.18;;;3.92;;
59930;SDS011;45790;51.538;6.736;2023-05-07T14:11:30;8.77;;;4.82;;
59930;SDS011;45790;51.538;6.736;2023-05-07T14:13:55;7.60;;;4.55;;
59930;SDS011;45790;51.538;6.736;2023-05-07T14:16:21;7.00;;;4.68;;
59930;SDS011;45790;51.538;6.736;2023-05-07T14:18:47;8.93;;;4.95;;
59930;SDS011;45790;51.538;6.736;2023-05-07T14:21:12;6.13;;;4.60;;
59930;SDS011;45790;51.538;6.736;2023-05-07T14:23:39;7.90;;;4.03;;
59930;SDS011;45790;51.538;6.736;2023-05-07T14:26:05;5.53;;;3.88;;
59930;SDS011;45790;51.538;6.736;2023-05-07T14:28:30;5.68;;;4.07;;
59930;SDS011;45790;51.538;6.736;2023-05-07T14:30:56;8.50;;;4.00;;
59930;SDS011;45790;51.538;6.736;2023-05-07T14:33:21;8.10;;;4.32;;
59930;SDS011;45790;51.538;6.736;2023-05-07T14:35:46;7.53;;;4.40;;
59930;SDS011;45790;51.538;6.736;2023-05-07T14:41:16;8.18;;;4.68;;
59930;SDS011;45790;51.538;6.736;2023-05-07T14:43:41;7.30;;;4.77;;
59930;SDS011;45790;51.538;6.736;2023-05-07T14:46:07;11.10;;;5.10;;
59930;SDS011;45790;51.538;6.736;2023-05-07T14:48:32;9.20;;;4.83;;
59930;SDS011;45790;51.538;6.736;2023-05-07T14:50:57;11.13;;;5.57;;
59930;SDS011;45790;51.538;6.736;2023-05-07T14:53:22;12.68;;;5.85;;
59930;SDS011;45790;51.538;6.736;2023-05-07T14:55:48;10.63;;;6.40;;
59930;SDS011;45790;51.538;6.736;2023-05-07T14:58:13;11.80;;;6.35;;
59930;SDS011;45790;51.538;6.736;2023-05-07T15:00:38;10.55;;;6.30;;
59930;SDS011;45790;51.538;6.736;2023-05-07T15:03:08;11.98;;;6.30;;
59930;SDS011;45790;51.538;6.736;2023-05-07T15:05:34;11.88;;;6.00;;
59930;SDS011;45790;51.538;6.736;2023-05-07T15:07:59;10.43;;;5.90;;
59930;SDS011;45790;51.538;6.736;2023-05-07T15:10:25;9.50;;;6.30;;
59930;SDS011;45790;51.538;6.736;2023-05-07T15:12:50;10.02;;;6.32;;
59930;SDS011;45790;51.538;6.736;2023-05-07T15:15:15;11.43;;;6.60;;
59930;SDS011;45790;51.538;6.736;2023-05-07T15:17:41;9.55;;;6.78;;
59930;SDS011;45790;51.538;6.736;2023-05-07T15:20:06;7.72;;;6.55;;
59930;SDS011;45790;51.538;6.736;2023-05-07T15:22:31;14.32;;;7.28;;
59930;SDS011;45790;51.538;6.736;2023-05-07T15:24:57;11.63;;;6.97;;
59930;SDS011;45790;51.538;6.736;2023-05-07T15:27:23;12.15;;;7.10;;
59930;SDS011;45790;51.538;6.736;2023-05-07T15:29:48;15.23;;;7.60;;
59930;SDS011;45790;51.538;6.736;2023-05-07T15:32:14;11.02;;;7.47;;
59930;SDS011;45790;51.538;6.736;2023-05-07T15:34:39;10.68;;;7.55;;